Time;durP1;ratioP1;P1;durP2;ratioP2;P2;SDS_P1;SDS_P2;PMS_P1;PMS_P2;Temp;Humidity;BMP_temperature;BMP_pressure;BME280_temperature;BME280_humidity;BME280_pressure;Samples;Min_cycle;Max_cycle;Signal;HPM_P1;HPM_P2
2023/12/26 00:01:48;;;;;;;0.70;0.70;;;;;;;10.38;90.02;99964.59;4981894;28;20026;-88
2023/12/26 00:04:15;;;;;;;0.70;0.70;;;;;;;10.38;89.84;99976.09;4979338;28;20031;-90
2023/12/26 00:06:43;;;;;;;0.70;0.70;;;;;;;10.32;90.09;99957.69;4979297;28;20030;-88
2023/12/26 00:09:10;;;;;;;0.80;0.80;;;;;;;10.47;89.88;99975.81;4981706;28;20026;-89
2023/12/26 00:11:44;;;;;;;0.80;0.80;;;;;;;10.52;89.72;99979.19;4979426;28;20054;-88
2023/12/26 00:14:10;;;;;;;0.73;0.73;;;;;;;10.56;90.28;99987.91;4985317;28;20081;-90
2023/12/26 00:16:35;;;;;;;0.70;0.70;;;;;;;10.43;90.60;99966.19;4981317;28;20034;-89
2023/12/26 00:19:00;;;;;;;0.70;0.70;;;;;;;10.45;90.39;99959.03;4965354;28;20655;-89
2023/12/26 00:21:26;;;;;;;0.80;0.80;;;;;;;10.57;90.45;99992.34;4963600;28;20037;-89
2023/12/26 00:23:51;;;;;;;0.70;0.70;;;;;;;10.40;90.71;99974.28;4997362;28;20034;-90
2023/12/26 00:26:17;;;;;;;0.63;0.63;;;;;;;10.29;90.46;99946.28;4985637;28;20018;-92
2023/12/26 00:28:42;;;;;;;0.70;0.70;;;;;;;10.46;90.68;99979.38;4985150;28;20029;-90
2023/12/26 00:31:08;;;;;;;0.70;0.70;;;;;;;10.52;90.81;99988.94;5001389;28;20042;-89
2023/12/26 00:33:33;;;;;;;0.70;0.70;;;;;;;10.47;90.97;99989.13;4980956;28;20042;-87
2023/12/26 00:35:59;;;;;;;0.70;0.70;;;;;;;10.28;90.58;99963.19;4983772;28;20041;-90
2023/12/26 00:38:25;;;;;;;0.70;0.70;;;;;;;10.51;91.06;99992.50;4983435;28;20053;-90
2023/12/26 00:40:51;;;;;;;0.70;0.70;;;;;;;10.46;91.02;99987.34;4981843;28;20157;-89
2023/12/26 00:43:16;;;;;;;0.70;0.70;;;;;;;10.47;91.70;99990.88;4980861;28;20050;-91
2023/12/26 00:45:42;;;;;;;0.70;0.70;;;;;;;10.58;91.28;100005.56;5001687;28;20030;-91
2023/12/26 00:48:07;;;;;;;0.70;0.70;;;;;;;10.37;91.70;99986.78;5001471;28;20045;-89
2023/12/26 00:50:34;;;;;;;0.70;0.70;;;;;;;10.25;91.11;99964.13;4978949;28;20273;-92
2023/12/26 00:53:00;;;;;;;0.70;0.70;;;;;;;10.40;91.00;100003.50;4982960;28;20026;-90
2023/12/26 00:55:25;;;;;;;0.80;0.80;;;;;;;10.41;90.84;99991.94;4985796;28;20029;-92
2023/12/26 00:57:51;;;;;;;0.70;0.70;;;;;;;10.31;91.18;99977.22;4979847;28;20015;-92
2023/12/26 01:00:17;;;;;;;0.70;0.70;;;;;;;10.27;90.80;99980.91;4984096;28;20073;-89
2023/12/26 01:02:42;;;;;;;0.70;0.70;;;;;;;10.20;90.74;99976.69;5002478;28;20057;-91
2023/12/26 01:05:08;;;;;;;0.80;0.80;;;;;;;10.32;91.38;99999.34;4970432;28;20026;-91
2023/12/26 01:07:33;;;;;;;0.80;0.80;;;;;;;10.33;91.56;99996.66;4988202;28;20040;-91
2023/12/26 01:10:02;;;;;;;0.70;0.70;;;;;;;10.30;91.54;99999.41;4981566;28;20090;-92
2023/12/26 01:12:28;;;;;;;0.80;0.80;;;;;;;10.31;91.64;100000.28;4970809;28;20084;-91
2023/12/26 01:14:53;;;;;;;0.70;0.70;;;;;;;10.45;91.92;100021.97;4987310;28;20121;-91
2023/12/26 01:17:19;;;;;;;0.70;0.70;;;;;;;10.28;91.65;100008.38;4985733;28;20782;-90
2023/12/26 03:10:08;;;;;;;0.80;0.80;;;;;;;10.42;89.25;100022.06;818934;23;20410;-90
2023/12/26 03:12:35;;;;;;;0.80;0.80;;;;;;;10.41;89.06;100029.16;4960581;28;20054;-89
2023/12/26 03:15:00;;;;;;;0.80;0.80;;;;;;;10.52;89.27;100040.38;4964303;28;20082;-90
2023/12/26 03:17:26;;;;;;;0.70;0.70;;;;;;;10.35;88.57;100007.22;4965246;29;20023;-93
2023/12/26 03:19:51;;;;;;;0.80;0.80;;;;;;;10.66;88.93;100060.31;4947310;29;20584;-90
2023/12/26 03:22:18;;;;;;;0.80;0.80;;;;;;;10.60;88.95;100048.06;4964809;28;20035;-90
2023/12/26 03:24:44;;;;;;;0.60;0.60;;;;;;;10.50;88.93;100043.97;4964137;28;20019;-92
2023/12/26 03:27:10;;;;;;;0.70;0.70;;;;;;;10.48;88.61;100036.03;4948493;29;20023;-91
2023/12/26 03:29:36;;;;;;;0.70;0.70;;;;;;;10.52;88.39;100048.34;4949362;28;20117;-91
2023/12/26 03:32:02;;;;;;;0.70;0.70;;;;;;;10.17;88.69;100011.34;4963140;28;20558;-92
2023/12/26 03:34:27;;;;;;;0.80;0.80;;;;;;;10.47;88.49;100049.41;4962816;28;20118;-92
2023/12/26 03:36:53;;;;;;;0.90;0.90;;;;;;;10.52;89.17;100058.97;4961230;28;20029;-92
2023/12/26 03:39:18;;;;;;;0.80;0.80;;;;;;;10.44;89.00;100039.72;4960281;28;20128;-90
2023/12/26 03:41:48;;;;;;;0.80;0.80;;;;;;;10.66;88.48;100061.16;4961022;28;20117;-91
2023/12/26 03:44:17;;;;;;;0.70;0.70;;;;;;;10.55;88.21;100048.25;4960797;28;20030;-91
2023/12/26 03:46:43;;;;;;;0.70;0.70;;;;;;;10.52;88.24;100047.47;4991930;28;20041;-90
2023/12/26 03:49:10;;;;;;;0.70;0.70;;;;;;;10.44;87.63;100017.59;4983933;28;20165;-91
2023/12/26 03:51:36;;;;;;;0.70;0.70;;;;;;;10.64;88.60;100061.22;4960124;28;20086;-90
2023/12/26 03:54:01;;;;;;;0.70;0.70;;;;;;;10.44;87.76;100039.72;4962004;28;20488;-91
2023/12/26 03:56:31;;;;;;;0.70;0.70;;;;;;;10.56;88.70;100052.63;4959354;28;20023;-91
2023/12/26 03:58:58;;;;;;;0.80;0.80;;;;;;;10.39;87.88;100036.31;4959544;28;20027;-90
2023/12/26 04:01:23;;;;;;;0.70;0.70;;;;;;;10.59;88.30;100062.31;4959413;28;20019;-91
2023/12/26 04:03:49;;;;;;;0.70;0.70;;;;;;;10.47;88.21;100034.31;4972675;28;20040;-92
2023/12/26 04:06:15;;;;;;;0.70;0.70;;;;;;;10.59;88.02;100059.66;4979961;28;20034;-90
2023/12/26 04:08:41;;;;;;;0.80;0.80;;;;;;;10.59;88.37;100059.66;4980322;28;20498;-90
2023/12/26 04:11:07;;;;;;;0.80;0.80;;;;;;;10.44;87.66;100017.59;4964195;28;20133;-89
2023/12/26 04:13:32;;;;;;;0.70;0.70;;;;;;;10.49;87.63;100042.25;4961536;28;20059;-91
2023/12/26 04:15:58;;;;;;;0.80;0.80;;;;;;;10.47;87.82;100034.31;4973529;28;20029;-90
2023/12/26 04:18:23;;;;;;;0.80;0.80;;;;;;;10.45;88.38;100020.19;4978857;28;20065;-91
2023/12/26 04:20:49;;;;;;;0.70;0.70;;;;;;;10.52;88.21;100036.81;4994936;28;20018;-90
2023/12/26 04:23:14;;;;;;;0.70;0.70;;;;;;;10.59;87.77;100059.66;4996733;28;20057;-91
2023/12/26 04:25:39;;;;;;;0.70;0.70;;;;;;;10.44;87.95;100039.72;4980438;28;20026;-89
2023/12/26 04:28:05;;;;;;;0.70;0.70;;;;;;;10.41;87.32;100045.13;4979006;28;20089;-90
2023/12/26 04:30:31;;;;;;;0.80;0.80;;;;;;;10.34;87.71;100027.66;4960221;28;20082;-91
2023/12/26 04:32:56;;;;;;;0.77;0.77;;;;;;;10.49;87.76;100047.56;4970479;28;20105;-91
2023/12/26 04:35:22;;;;;;;0.70;0.70;;;;;;;10.57;87.71;100064.13;4970244;28;20377;-89
2023/12/26 04:37:47;;;;;;;0.80;0.80;;;;;;;10.71;86.65;100085.84;4964004;28;20485;-90
2023/12/26 04:40:13;;;;;;;0.80;0.80;;;;;;;10.44;86.71;100039.72;4981783;28;20050;-91
2023/12/26 04:42:39;;;;;;;0.70;0.70;;;;;;;10.45;86.50;100020.19;4979885;28;20392;-90
2023/12/26 04:45:04;;;;;;;0.70;0.70;;;;;;;10.30;85.77;100004.72;4964109;28;20042;-91
2023/12/26 04:47:30;;;;;;;0.80;0.80;;;;;;;10.44;86.08;100037.03;4983878;28;20086;-90
2023/12/26 04:49:55;;;;;;;0.70;0.70;;;;;;;10.61;85.71;100047.16;4978864;28;20050;-89
2023/12/26 04:52:21;;;;;;;0.70;0.70;;;;;;;10.49;85.98;100048.41;4969342;28;20010;-91
2023/12/26 04:54:46;;;;;;;0.70;0.70;;;;;;;10.57;86.09;100059.69;4982302;28;20026;-89
2023/12/26 04:57:12;;;;;;;0.70;0.70;;;;;;;10.32;85.96;99997.56;4982019;28;20034;-90
2023/12/26 04:59:38;;;;;;;0.80;0.80;;;;;;;10.68;85.80;100069.09;4981900;28;20021;-91
2023/12/26 05:02:04;;;;;;;0.80;0.80;;;;;;;10.06;85.01;99968.25;4985520;28;20034;-89
2023/12/26 05:04:30;;;;;;;0.70;0.70;;;;;;;10.69;85.72;100065.53;4983665;28;20089;-90
2023/12/26 05:06:55;;;;;;;0.80;0.80;;;;;;;10.58;84.99;100053.44;4979883;28;20034;-91
2023/12/26 05:09:21;;;;;;;0.80;0.80;;;;;;;10.72;85.52;100062.78;4964858;28;20105;-92
2023/12/26 05:11:46;;;;;;;0.77;0.77;;;;;;;10.29;85.22;100016.28;4965133;28;20062;-91
2023/12/26 05:14:12;;;;;;;0.80;0.80;;;;;;;10.59;85.18;100071.13;4986963;28;20030;-92
2023/12/26 05:16:42;;;;;;;0.80;0.80;;;;;;;10.72;85.22;100076.97;4983484;28;20038;-93
2023/12/26 05:19:08;;;;;;;0.70;0.70;;;;;;;10.72;84.71;100074.28;4982750;28;20033;-93
2023/12/26 05:21:34;;;;;;;0.63;0.63;;;;;;;10.54;84.85;100054.44;4986471;28;20018;-91
2023/12/26 05:24:00;;;;;;;0.70;0.70;;;;;;;10.67;84.72;100072.69;4988373;28;20070;-91
2023/12/26 05:26:25;;;;;;;0.75;0.75;;;;;;;10.68;85.59;100079.75;4981484;28;20022;-90
2023/12/26 05:28:51;;;;;;;0.80;0.80;;;;;;;10.62;85.81;100059.56;4979045;28;20032;-90
2023/12/26 05:31:20;;;;;;;0.80;0.80;;;;;;;10.77;86.25;100092.75;4997595;28;20078;-90
2023/12/26 05:33:46;;;;;;;0.70;0.70;;;;;;;10.64;85.69;100061.22;4982147;28;20599;-90
2023/12/26 05:36:11;;;;;;;0.70;0.70;;;;;;;10.65;86.10;100059.44;4981586;28;20030;-90
2023/12/26 05:38:37;;;;;;;0.70;0.70;;;;;;;10.73;85.52;100077.81;4978620;28;20030;-89
2023/12/26 05:41:05;;;;;;;0.70;0.70;;;;;;;10.75;85.21;100084.84;4985618;28;20425;-90
2023/12/26 05:43:31;;;;;;;0.70;0.70;;;;;;;10.78;85.58;100091.84;4979503;28;20029;-90
2023/12/26 05:45:57;;;;;;;0.70;0.70;;;;;;;10.66;86.08;100081.59;4983483;28;20026;-89
2023/12/26 05:48:23;;;;;;;0.70;0.70;;;;;;;10.60;85.92;100074.69;4982274;28;20517;-90
2023/12/26 05:50:48;;;;;;;0.80;0.80;;;;;;;10.69;85.83;100093.03;4981621;28;20018;-90
2023/12/26 05:53:14;;;;;;;0.80;0.80;;;;;;;10.67;86.02;100083.34;4981487;28;20038;-90
2023/12/26 05:55:39;;;;;;;0.63;0.63;;;;;;;10.47;85.76;100057.38;4964288;28;20125;-89
2023/12/26 05:58:05;;;;;;;0.80;0.80;;;;;;;10.67;85.95;100100.16;4971151;28;20030;-91
2023/12/26 06:00:30;;;;;;;0.70;0.70;;;;;;;10.61;86.21;100090.59;4979744;28;20033;-90
2023/12/26 06:02:55;;;;;;;0.70;0.70;;;;;;;10.64;86.70;100110.91;4997006;28;20092;-90
2023/12/26 06:05:21;;;;;;;0.80;0.80;;;;;;;10.65;86.25;100115.31;4980350;28;20025;-90
2023/12/26 06:07:46;;;;;;;0.70;0.70;;;;;;;10.67;86.66;100120.56;4979712;28;20022;-91
2023/12/26 06:10:13;;;;;;;0.70;0.70;;;;;;;10.60;87.27;100120.78;4980882;28;20030;-91
2023/12/26 06:12:39;;;;;;;0.70;0.70;;;;;;;10.65;87.58;100139.25;4978666;28;20027;-91
2023/12/26 06:15:05;;;;;;;0.70;0.70;;;;;;;10.43;88.00;100119.53;4983411;28;20026;-90
2023/12/26 06:17:30;;;;;;;0.70;0.70;;;;;;;10.54;87.47;100142.22;4972866;28;20046;-90
2023/12/26 06:19:56;;;;;;;0.70;0.70;;;;;;;10.53;87.66;100131.63;4981217;28;20022;-89
2023/12/26 06:22:21;;;;;;;0.70;0.70;;;;;;;10.52;87.71;100144.06;4980735;28;20117;-91
2023/12/26 06:24:47;;;;;;;0.70;0.70;;;;;;;10.55;87.77;100128.03;4980251;28;20113;-90
2023/12/26 06:27:12;;;;;;;0.70;0.70;;;;;;;10.50;87.94;100124.63;4982164;28;20026;-91
2023/12/26 06:29:38;;;;;;;0.80;0.80;;;;;;;10.44;88.64;100114.16;4976468;28;20048;-90
2023/12/26 06:32:04;;;;;;;0.75;0.75;;;;;;;10.59;88.75;100153.59;4983946;28;20026;-92
2023/12/26 06:34:29;;;;;;;0.77;0.77;;;;;;;10.53;88.29;100127.19;4979344;28;20030;-91
2023/12/26 06:36:54;;;;;;;0.77;0.77;;;;;;;10.50;88.64;100124.63;4971663;28;20116;-90
2023/12/26 06:39:20;;;;;;;0.80;0.80;;;;;;;10.49;88.24;100130.84;4981886;28;20125;-91
2023/12/26 06:41:45;;;;;;;0.70;0.70;;;;;;;10.55;88.39;100122.69;4981044;28;20395;-92
2023/12/26 06:44:11;;;;;;;0.80;0.80;;;;;;;10.56;88.36;100135.06;4982847;28;20033;-90
2023/12/26 06:46:41;;;;;;;0.70;0.70;;;;;;;10.48;87.70;100114.94;4968153;28;20030;-92
2023/12/26 06:49:06;;;;;;;0.70;0.70;;;;;;;10.46;88.01;100107.00;4962486;28;20106;-93
2023/12/26 06:51:31;;;;;;;0.80;0.80;;;;;;;10.61;88.16;100140.25;4960329;28;20027;-91
2023/12/26 06:53:57;;;;;;;0.70;0.70;;;;;;;10.61;88.35;100149.09;4961117;28;20106;-91
2023/12/26 06:56:22;;;;;;;0.70;0.70;;;;;;;10.46;88.27;100136.25;4962971;28;20055;-92
2023/12/26 06:58:48;;;;;;;0.60;0.60;;;;;;;10.44;88.66;100143.41;4961939;28;20019;-93
2023/12/26 07:01:14;;;;;;;0.70;0.70;;;;;;;10.56;89.01;100177.63;4977590;28;20085;-93
2023/12/26 07:03:39;;;;;;;0.70;0.70;;;;;;;10.45;89.18;100149.59;4997014;28;20026;-92
2023/12/26 07:06:05;;;;;;;0.70;0.70;;;;;;;10.48;88.76;100158.38;4983523;28;20022;-91
2023/12/26 07:08:30;;;;;;;0.70;0.70;;;;;;;10.54;88.77;100157.34;4980998;28;20116;-91
2023/12/26 07:10:56;;;;;;;0.70;0.70;;;;;;;10.36;89.39;100137.47;4973934;28;20126;-91
2023/12/26 07:13:21;;;;;;;0.80;0.80;;;;;;;10.46;89.63;100176.16;4943383;29;20035;-92
2023/12/26 07:15:47;;;;;;;0.60;0.60;;;;;;;10.37;89.82;100165.81;4943627;29;20545;-90
2023/12/26 07:18:13;;;;;;;0.70;0.70;;;;;;;10.29;89.44;100135.91;4954661;28;20034;-92
2023/12/26 07:20:38;;;;;;;0.70;0.70;;;;;;;10.38;89.14;100164.88;4982280;28;20497;-91
2023/12/26 07:23:04;;;;;;;0.70;0.70;;;;;;;10.66;89.45;100201.31;4972760;28;20023;-93
2023/12/26 07:25:30;;;;;;;0.70;0.70;;;;;;;10.50;88.92;100169.84;4964579;28;20018;-92
2023/12/26 07:27:55;;;;;;;0.70;0.70;;;;;;;10.58;90.04;100204.19;4966682;28;20046;-93
2023/12/26 07:30:23;;;;;;;0.70;0.70;;;;;;;10.55;89.75;100221.09;4967361;28;20023;-94
2023/12/26 07:32:48;;;;;;;0.70;0.70;;;;;;;10.50;89.72;100207.06;4965052;28;20768;-93
2023/12/26 07:35:13;;;;;;;0.70;0.70;;;;;;;10.50;89.32;100204.41;4965625;28;20031;-92
2023/12/26 07:37:39;;;;;;;0.77;0.77;;;;;;;10.49;89.03;100194.69;4965560;28;20092;-92
2023/12/26 07:40:05;;;;;;;0.70;0.70;;;;;;;10.54;89.29;100207.88;4974241;28;20023;-92
2023/12/26 07:42:30;;;;;;;0.70;0.70;;;;;;;10.51;88.16;100190.19;4972377;28;20026;-91
2023/12/26 07:44:56;;;;;;;0.70;0.70;;;;;;;10.60;88.15;100205.00;4978093;28;20388;-92
2023/12/26 07:47:22;;;;;;;0.70;0.70;;;;;;;10.55;88.00;100197.19;4946086;28;20611;-91
2023/12/26 07:49:48;;;;;;;0.70;0.70;;;;;;;10.56;87.62;100203.34;4945306;29;20015;-92
2023/12/26 07:52:13;;;;;;;0.70;0.70;;;;;;;10.60;87.22;100211.22;4947243;29;20027;-92
2023/12/26 07:54:39;;;;;;;0.70;0.70;;;;;;;10.60;86.82;100218.31;4949720;28;20039;-91
2023/12/26 07:57:05;;;;;;;0.70;0.70;;;;;;;10.72;86.64;100230.38;4966056;28;20034;-92
2023/12/26 07:59:30;;;;;;;0.70;0.70;;;;;;;10.76;87.00;100243.53;4965346;28;20150;-93
2023/12/26 08:01:56;;;;;;;0.70;0.70;;;;;;;10.73;86.91;100224.13;4966174;28;20051;-95
2023/12/26 08:04:22;;;;;;;0.80;0.80;;;;;;;10.77;86.98;100229.34;4968103;28;20078;-92
2023/12/26 08:06:48;;;;;;;0.70;0.70;;;;;;;10.75;86.19;100235.59;4966579;28;20148;-92
2023/12/26 08:09:13;;;;;;;0.70;0.70;;;;;;;10.81;86.89;100256.72;4965973;28;20074;-93
2023/12/26 08:11:39;;;;;;;0.70;0.70;;;;;;;10.73;87.11;100242.75;4984190;28;20046;-92
2023/12/26 08:14:05;;;;;;;0.70;0.70;;;;;;;10.86;85.87;100262.75;4992686;28;20027;-93
2023/12/26 08:16:31;;;;;;;0.65;0.65;;;;;;;10.83;86.62;100265.50;4977507;28;20090;-93
2023/12/26 08:18:57;;;;;;;0.70;0.70;;;;;;;10.86;85.97;100276.06;4987287;28;21276;-93
2023/12/26 08:21:23;;;;;;;0.60;0.60;;;;;;;10.75;87.35;100267.53;4973732;28;20042;-91
2023/12/26 08:23:48;;;;;;;0.70;0.70;;;;;;;10.68;87.44;100260.63;4976110;28;20158;-92
2023/12/26 08:26:14;;;;;;;0.63;0.63;;;;;;;10.80;87.29;100263.81;4989384;28;20042;-93
2023/12/26 08:28:39;;;;;;;0.70;0.70;;;;;;;10.67;86.66;100249.13;4984464;28;20053;-93
2023/12/26 08:31:05;;;;;;;0.70;0.70;;;;;;;10.80;87.09;100268.25;4974430;28;20006;-92
2023/12/26 08:33:31;;;;;;;0.60;0.60;;;;;;;10.83;87.12;100277.03;5000395;28;20034;-93
2023/12/26 08:35:57;;;;;;;0.70;0.70;;;;;;;10.90;87.69;100296.34;4992961;28;20093;-93
2023/12/26 08:38:23;;;;;;;0.70;0.70;;;;;;;10.71;87.03;100266.75;4983475;28;20030;-92
2023/12/26 08:40:49;;;;;;;0.60;0.60;;;;;;;10.79;87.14;100282.50;4972830;28;20075;-90
2023/12/26 08:43:14;;;;;;;0.70;0.70;;;;;;;10.73;87.49;100270.22;4990044;28;20023;-92
2023/12/26 08:45:40;;;;;;;0.70;0.70;;;;;;;10.93;87.33;100310.44;4993650;28;20033;-91
2023/12/26 08:48:06;;;;;;;0.70;0.70;;;;;;;10.82;88.20;100290.38;5008256;28;20021;-89
2023/12/26 08:50:32;;;;;;;0.60;0.60;;;;;;;10.90;88.36;100310.53;5009246;28;20049;-92
2023/12/26 08:52:58;;;;;;;0.70;0.70;;;;;;;10.99;88.86;100325.38;5015466;28;20027;-89
2023/12/26 08:55:23;;;;;;;0.70;0.70;;;;;;;10.81;89.30;100302.81;4985204;28;20036;-92
2023/12/26 08:57:48;;;;;;;0.70;0.70;;;;;;;10.87;89.49;100321.28;4986855;28;20117;-91
2023/12/26 09:00:14;;;;;;;0.70;0.70;;;;;;;10.84;89.85;100315.16;4987716;28;20022;-89
2023/12/26 09:02:42;;;;;;;0.68;0.68;;;;;;;10.92;90.89;100339.75;4984361;28;20026;-91
2023/12/26 09:05:08;;;;;;;0.70;0.70;;;;;;;10.83;90.50;100329.38;4987330;28;20037;-91
2023/12/26 09:07:34;;;;;;;0.60;0.60;;;;;;;10.76;91.72;100325.16;5000777;28;20022;-92
2023/12/26 09:10:00;;;;;;;0.70;0.70;;;;;;;10.78;91.63;100324.19;4982049;28;20029;-91
2023/12/26 09:12:26;;;;;;;0.70;0.70;;;;;;;10.75;91.08;100326.06;4983608;28;20122;-92
2023/12/26 09:14:52;;;;;;;0.65;0.65;;;;;;;10.72;91.25;100315.50;4984325;28;20031;-91
2023/12/26 09:17:17;;;;;;;0.70;0.70;;;;;;;10.75;91.30;100318.97;4984430;28;20030;-92
2023/12/26 09:19:42;;;;;;;0.73;0.73;;;;;;;10.73;90.67;100314.56;4984120;28;20106;-91
2023/12/26 09:22:08;;;;;;;0.63;0.63;;;;;;;10.74;90.09;100319.00;4982459;28;20026;-92
2023/12/26 09:24:33;;;;;;;0.70;0.70;;;;;;;10.89;90.16;100345.19;5000683;28;20085;-92
2023/12/26 09:26:59;;;;;;;0.70;0.70;;;;;;;10.79;90.14;100330.38;4979567;28;20034;-91
2023/12/26 09:29:24;;;;;;;0.70;0.70;;;;;;;10.76;89.30;100336.66;4965704;28;20026;-92
2023/12/26 09:31:53;;;;;;;0.70;0.70;;;;;;;10.84;89.21;100352.41;4979679;28;20022;-91
2023/12/26 09:34:18;;;;;;;0.70;0.70;;;;;;;10.87;89.27;100331.03;4984765;28;20022;-92
2023/12/26 09:36:44;;;;;;;0.70;0.70;;;;;;;11.01;89.47;100377.63;4986222;28;20033;-92
2023/12/26 09:39:09;;;;;;;0.70;0.70;;;;;;;10.85;88.84;100346.16;4981481;28;20022;-92
2023/12/26 09:41:34;;;;;;;0.70;0.70;;;;;;;10.89;88.13;100340.72;4965413;28;20062;-90
2023/12/26 09:44:00;;;;;;;0.70;0.70;;;;;;;10.94;87.50;100338.78;4980254;28;20498;-91
2023/12/26 09:46:26;;;;;;;0.70;0.70;;;;;;;10.91;87.09;100332.69;4980321;28;20031;-92
2023/12/26 09:48:51;;;;;;;0.70;0.70;;;;;;;10.91;87.39;100332.69;4985701;28;20030;-91
2023/12/26 09:51:23;;;;;;;0.70;0.70;;;;;;;11.04;86.69;100355.34;4983517;28;20018;-91
2023/12/26 09:53:59;;;;;;;0.80;0.80;;;;;;;10.98;86.76;100340.47;4984160;28;20049;-92
2023/12/26 09:56:25;;;;;;;0.70;0.70;;;;;;;11.09;86.89;100364.09;4983127;28;20030;-92
2023/12/26 09:58:53;;;;;;;0.70;0.70;;;;;;;11.06;86.80;100350.88;4973823;28;20045;-91
2023/12/26 10:01:20;;;;;;;0.60;0.60;;;;;;;11.20;86.63;100383.31;4982527;28;20023;-92
2023/12/26 10:03:46;;;;;;;0.70;0.70;;;;;;;11.25;86.71;100402.69;4979049;28;20034;-92
2023/12/26 10:06:13;;;;;;;0.60;0.60;;;;;;;11.05;86.77;100357.13;4972125;28;20066;-92
2023/12/26 10:08:40;;;;;;;0.60;0.60;;;;;;;11.18;87.04;100374.47;4983210;28;20392;-92
2023/12/26 10:11:07;;;;;;;0.60;0.60;;;;;;;10.86;86.81;100329.28;4984000;28;20512;-92
2023/12/26 10:13:53;;;;;;;0.70;0.70;;;;;;;11.18;86.96;100366.50;4973773;28;20121;-92
2023/12/26 10:16:19;;;;;;;0.70;0.70;;;;;;;11.16;87.02;100366.53;4962936;28;20030;-91
2023/12/26 10:18:45;;;;;;;0.70;0.70;;;;;;;11.13;87.30;100357.75;4964773;28;20130;-91
2023/12/26 10:21:12;;;;;;;0.60;0.60;;;;;;;11.35;87.49;100378.38;4986225;28;20033;-92
2023/12/26 10:23:37;;;;;;;0.60;0.60;;;;;;;11.21;87.13;100375.28;4991103;28;20029;-91
2023/12/26 10:26:03;;;;;;;0.70;0.70;;;;;;;11.31;87.06;100363.44;4989294;28;20034;-92
2023/12/26 10:28:32;;;;;;;0.70;0.70;;;;;;;11.26;88.10;100367.13;4984540;28;20118;-90
2023/12/26 10:30:58;;;;;;;0.60;0.60;;;;;;;11.44;88.61;100388.78;4985367;28;20053;-91
2023/12/26 10:33:26;;;;;;;0.60;0.60;;;;;;;11.49;90.30;100386.84;4986106;28;20042;-92
2023/12/26 10:36:05;;;;;;;0.70;0.70;;;;;;;11.56;89.89;100398.19;4973533;28;20113;-91
2023/12/26 10:38:31;;;;;;;0.60;0.60;;;;;;;11.41;89.72;100382.66;4989332;28;20033;-92
2023/12/26 10:41:00;;;;;;;0.65;0.65;;;;;;;11.59;89.43;100403.41;4985651;28;20094;-92
2023/12/26 10:43:29;;;;;;;0.70;0.70;;;;;;;11.57;89.18;100411.44;4992078;28;20026;-93
2023/12/26 10:45:57;;;;;;;0.70;0.70;;;;;;;11.47;88.99;100399.31;4994790;28;20041;-93
2023/12/26 10:48:27;;;;;;;0.60;0.60;;;;;;;11.41;88.59;100394.19;4988392;28;20019;-93
2023/12/26 10:50:56;;;;;;;0.70;0.70;;;;;;;11.51;88.66;100405.44;4987868;28;20034;-91
2023/12/26 10:53:27;;;;;;;0.70;0.70;;;;;;;11.30;89.17;100380.31;4990384;28;20046;-94
2023/12/26 10:55:54;;;;;;;0.70;0.70;;;;;;;11.19;89.95;100363.78;4985142;28;20042;-90
2023/12/26 10:58:29;;;;;;;0.70;0.70;;;;;;;11.49;91.21;100407.28;4985563;28;20015;-94
2023/12/26 12:24:38;;;;;;;0.70;0.70;;;;;;;11.46;93.13;100381.63;857819;23;20334;-89
2023/12/26 12:44:05;;;;;;;0.70;0.70;;;;;;;11.45;93.49;100382.50;3214685;23;20319;-92
2023/12/26 14:24:07;;;;;;;0.70;0.70;;;;;;;11.24;100.00;100451.50;903883;23;20338;-90
2023/12/26 14:26:34;;;;;;;0.70;0.70;;;;;;;11.16;100.00;100449.06;4986299;28;20574;-92
2023/12/26 14:29:00;;;;;;;0.70;0.70;;;;;;;11.12;100.00;100438.56;4973120;28;20102;-90
2023/12/26 14:31:27;;;;;;;0.70;0.70;;;;;;;11.15;100.00;100435.81;4972994;28;20022;-93
2023/12/26 14:33:53;;;;;;;0.70;0.70;;;;;;;11.13;100.00;100430.53;4972128;28;20555;-93
2023/12/26 14:36:18;;;;;;;0.60;0.60;;;;;;;11.24;100.00;100446.19;4981391;28;20022;-92
2023/12/26 14:38:44;;;;;;;0.70;0.70;;;;;;;11.38;100.00;100465.31;4989626;28;20098;-93
2023/12/26 14:41:09;;;;;;;0.65;0.65;;;;;;;11.31;100.00;100455.75;4969597;28;20037;-93
2023/12/26 15:27:41;;;;;;;0.70;0.70;;;;;;;11.11;96.90;100424.38;770106;23;20327;-89
2023/12/26 16:49:58;;;;;;;0.70;0.70;;;;;;;11.59;97.51;100557.94;1235294;23;20392;-92
2023/12/26 16:52:24;;;;;;;0.70;0.70;;;;;;;11.59;97.46;100563.28;5015455;28;20033;-93
2023/12/26 16:54:51;;;;;;;0.70;0.70;;;;;;;11.44;96.64;100537.94;5014010;28;20065;-92
2023/12/26 16:57:17;;;;;;;0.60;0.60;;;;;;;11.42;96.31;100537.09;5016737;28;20056;-93
2023/12/26 16:59:43;;;;;;;0.60;0.60;;;;;;;11.48;96.40;100544.06;5035859;28;20030;-93
2023/12/26 17:02:08;;;;;;;0.70;0.70;;;;;;;11.44;95.98;100539.72;5018672;28;20363;-92
2023/12/26 17:04:34;;;;;;;0.60;0.60;;;;;;;11.38;95.65;100527.44;5015659;28;20026;-92
2023/12/26 17:06:59;;;;;;;0.60;0.60;;;;;;;11.51;95.45;100543.97;5014223;28;20034;-92
2023/12/26 17:09:24;;;;;;;0.70;0.70;;;;;;;11.39;94.58;100525.66;5012809;28;20030;-92
2023/12/26 17:11:50;;;;;;;0.60;0.60;;;;;;;11.61;95.23;100577.44;5015402;28;20026;-92
2023/12/26 17:14:15;;;;;;;0.60;0.60;;;;;;;11.58;95.56;100567.72;5014719;28;20033;-93
2023/12/26 17:16:41;;;;;;;0.70;0.70;;;;;;;11.63;95.21;100586.25;5008795;28;20030;-91
2023/12/26 17:19:07;;;;;;;0.70;0.70;;;;;;;11.48;94.91;100560.88;5030920;28;20030;-93
2023/12/26 17:21:33;;;;;;;0.70;0.70;;;;;;;11.54;95.24;100575.84;5017417;28;20081;-92
2023/12/26 17:23:58;;;;;;;0.60;0.60;;;;;;;11.63;94.73;100580.94;5016654;28;20299;-92
2023/12/26 17:26:24;;;;;;;0.70;0.70;;;;;;;11.44;95.14;100553.91;5016247;28;20026;-92
2023/12/26 17:28:54;;;;;;;0.60;0.60;;;;;;;11.54;94.72;100586.50;5015896;28;20029;-92
2023/12/26 17:31:19;;;;;;;0.70;0.70;;;;;;;11.58;94.83;100578.38;5015425;28;20014;-92
2023/12/26 17:33:45;;;;;;;0.70;0.70;;;;;;;11.52;93.34;100588.31;5012095;28;20030;-92
2023/12/26 17:36:10;;;;;;;0.70;0.70;;;;;;;11.47;93.23;100577.81;5007974;28;20041;-91
2023/12/26 17:38:36;;;;;;;0.70;0.70;;;;;;;11.49;93.31;100577.75;5009588;28;20036;-92
2023/12/26 17:43:36;;;;;;;0.70;0.70;;;;;;;11.53;93.20;100579.44;4998389;28;20058;-92
2023/12/26 17:46:02;;;;;;;0.70;0.70;;;;;;;11.31;93.35;100556.94;5006529;28;20097;-92
2023/12/26 17:48:28;;;;;;;0.70;0.70;;;;;;;11.50;92.49;100596.38;5013816;28;20018;-92
2023/12/26 17:53:29;;;;;;;0.60;0.60;;;;;;;11.59;92.58;100609.44;5014125;28;20062;-93
2023/12/26 17:55:55;;;;;;;0.70;0.70;;;;;;;11.54;92.80;100589.16;4996617;28;20081;-91
2023/12/26 17:58:20;;;;;;;0.60;0.60;;;;;;;11.61;92.78;100606.75;4993276;28;20030;-93
2023/12/26 18:00:46;;;;;;;0.60;0.60;;;;;;;11.59;92.96;100605.91;4975857;28;20029;-93
2023/12/26 18:03:11;;;;;;;0.60;0.60;;;;;;;11.56;93.49;100611.31;4983696;28;20030;-93
2023/12/26 18:05:37;;;;;;;0.60;0.60;;;;;;;11.59;93.35;100621.88;4993109;28;20019;-93
2023/12/26 18:08:03;;;;;;;0.70;0.70;;;;;;;11.54;93.11;100605.16;5000697;28;20037;-93
2023/12/26 18:10:28;;;;;;;0.70;0.70;;;;;;;11.49;92.54;100615.94;4982559;28;20054;-92
2023/12/26 18:12:55;;;;;;;0.60;0.60;;;;;;;11.45;92.59;100608.06;4979147;28;20026;-92
2023/12/26 18:15:20;;;;;;;0.60;0.60;;;;;;;11.47;93.33;100617.75;4986890;28;20074;-93
2023/12/26 18:17:46;;;;;;;0.60;0.60;;;;;;;11.30;93.01;100581.84;4993649;28;20045;-92
2023/12/26 18:20:11;;;;;;;0.60;0.60;;;;;;;11.44;93.15;100622.28;4980797;28;20014;-93
2023/12/26 18:22:37;;;;;;;0.60;0.60;;;;;;;11.53;93.34;100628.25;4977573;28;20141;-93
2023/12/26 18:25:02;;;;;;;0.70;0.70;;;;;;;11.51;93.66;100619.44;4976728;28;20134;-92
2023/12/26 18:27:28;;;;;;;0.70;0.70;;;;;;;11.52;92.94;100607.84;4977213;28;20042;-93
2023/12/26 18:29:54;;;;;;;0.70;0.70;;;;;;;11.48;92.57;100611.50;4989319;28;20622;-94
2023/12/26 18:32:19;;;;;;;0.70;0.70;;;;;;;11.42;92.36;100597.47;4995394;28;20058;-94
2023/12/26 18:34:46;;;;;;;0.60;0.60;;;;;;;11.45;92.20;100613.41;4990021;28;20111;-92
2023/12/26 18:37:11;;;;;;;0.70;0.70;;;;;;;11.44;91.93;100611.63;4993207;28;20011;-92
2023/12/26 18:39:37;;;;;;;0.70;0.70;;;;;;;11.50;92.28;100623.00;4993245;28;20022;-92